Miami, FL (33187)

10:49 PM EDT on October 20, 2014 (GMT -0400)
Miami Everglades RV Resort | Change Station
CLOSE
Current Station
Personal Weather Station
Location: Miami, FL
Elevation: 10 ft
Nearby Weather Stations

Elev 10 ft 25.58 °N, 80.45 °W | Updated 7 seconds ago

Overcast
Overcast
71.8 °F
Feels Like 71.8 °F
N
0.0
Wind Variable Wind from West
Gusts 0.0 mph

Today
High -- | Low -- °F
--% Chance of Precip.
Yesterday
High -- | Low -- °F
Precip. -- in
7:23 AM 6:49 PM
Waning Crescent, 8% visible
Pressure 29.99 in
Visibility 10.0 miles
Clouds Mostly Cloudy 4100 ft
Mostly Cloudy 4700 ft
Overcast 7000 ft
Dew Point 71 °F
Humidity 97%
Rainfall 0.35 in
Snow Depth Not available.
UV 0 out of 12
Pollen 3.60 out of 12
Ozone Good
PM2.5 Good
Flu Activity Local Activity
METAR KTMB 210153Z 11004KT 10SM BKN041 BKN047 OVC070 24/21 A2999 RMK AO2 SLP155 T02390206

More Conditions Fewer Conditions

Pressure 29.99 in
Visibility 10.0 miles
Clouds Mostly Cloudy 4100 ft
Mostly Cloudy 4700 ft
Overcast 7000 ft
Dew Point 71 °F
Humidity 97%
Rainfall 0.35 in
Snow Depth Not available.
UV 0 out of 12
Pollen 3.60 out of 12
Ozone Good
PM2.5 Good
Flu Activity Local Activity
METAR KTMB 210153Z 11004KT 10SM BKN041 BKN047 OVC070 24/21 A2999 RMK AO2 SLP155 T02390206

More Conditions Fewer Conditions

10-Day Weather Forecast

Almanac

Astronomy

Oct. 20, 2014 Rise Set
Actual Time 7:23 AM EDT 6:49 PM EDT
Civil Twilight 6:59 AM EDT 7:13 PM EDT
Nautical Twilight 6:33 AM EDT 7:40 PM EDT
Astronomical Twilight 6:06 AM EDT 8:06 PM EDT
Moon 4:28 AM EDT (10/20) 4:56 PM EDT (10/20)
Length of Visible Light 12h 13m
Length of Day
11h 26m
Tomorrow will be 1m 25s shorter.
Waning Crescent, 8% of the Moon is Illuminated
Today
Waning Crescent
Oct 23
New
Oct 30
First Quarter
Nov 6
Full
Nov 14
Last Quarter

Today's Extremes

State Highs State Lows

Community

WunderPhotos

Upload Photos

1,763,580 photos uploaded!

Nearby

Air Quality

  Air Quality AQ Index Pollutant
Yesterday Good
OZONE
Yesterday Good
PM2.5
Current Good
OZONE
Current Good
PM2.5
Monday Good
OZONE
Monday Good
PM2.5
Tuesday Good
OZONE
Tuesday Good
PM2.5

Snow Depth

Station Depth Elevation
No new snow has been reported.

Earthquake Activity

City Distance Mag. Time & Date
No recent earthquake activity has been reported nearby.
Minimum magnitude displayed is 2.5.

Coastal Water Temperatures

Place Temperature
Virginia Key, FL 82.0 °F

Nearby Weather Stations